sensor_id;sensor_type;location;lat;lon;timestamp;P1;durP1;ratioP1;P2;durP2;ratioP2
78555;SDS011;67851;51.354;7.744;2023-05-19T00:00:13;16.27;;;6.45;;
78555;SDS011;67851;51.354;7.744;2023-05-19T00:02:40;22.13;;;7.80;;
78555;SDS011;67851;51.354;7.744;2023-05-19T00:05:08;13.02;;;5.95;;
78555;SDS011;67851;51.354;7.744;2023-05-19T00:07:35;17.02;;;6.20;;
78555;SDS011;67851;51.354;7.744;2023-05-19T00:10:02;14.25;;;5.65;;
78555;SDS011;67851;51.354;7.744;2023-05-19T00:12:28;14.80;;;6.65;;
78555;SDS011;67851;51.354;7.744;2023-05-19T00:14:55;14.20;;;6.15;;
78555;SDS011;67851;51.354;7.744;2023-05-19T00:17:21;19.02;;;6.13;;
78555;SDS011;67851;51.354;7.744;2023-05-19T00:19:47;16.23;;;6.55;;
78555;SDS011;67851;51.354;7.744;2023-05-19T00:22:13;20.17;;;6.38;;
78555;SDS011;67851;51.354;7.744;2023-05-19T00:24:39;18.27;;;6.60;;
78555;SDS011;67851;51.354;7.744;2023-05-19T00:27:04;18.00;;;6.82;;
78555;SDS011;67851;51.354;7.744;2023-05-19T00:29:30;20.02;;;6.95;;
78555;SDS011;67851;51.354;7.744;2023-05-19T00:31:55;13.70;;;6.90;;
78555;SDS011;67851;51.354;7.744;2023-05-19T00:34:22;19.58;;;7.95;;
78555;SDS011;67851;51.354;7.744;2023-05-19T00:36:47;23.63;;;7.07;;
78555;SDS011;67851;51.354;7.744;2023-05-19T00:39:13;26.30;;;7.25;;
78555;SDS011;67851;51.354;7.744;2023-05-19T00:41:40;15.57;;;5.95;;
78555;SDS011;67851;51.354;7.744;2023-05-19T00:44:06;20.65;;;6.78;;
78555;SDS011;67851;51.354;7.744;2023-05-19T00:46:32;11.77;;;6.15;;
78555;SDS011;67851;51.354;7.744;2023-05-19T00:48:57;18.80;;;8.63;;
78555;SDS011;67851;51.354;7.744;2023-05-19T00:51:23;11.95;;;6.82;;
78555;SDS011;67851;51.354;7.744;2023-05-19T00:53:51;17.75;;;6.65;;
78555;SDS011;67851;51.354;7.744;2023-05-19T00:56:17;17.67;;;6.45;;
78555;SDS011;67851;51.354;7.744;2023-05-19T00:58:45;20.10;;;6.55;;
78555;SDS011;67851;51.354;7.744;2023-05-19T01:01:12;19.73;;;6.78;;
78555;SDS011;67851;51.354;7.744;2023-05-19T01:03:38;15.23;;;6.53;;
78555;SDS011;67851;51.354;7.744;2023-05-19T01:06:05;13.95;;;7.45;;
78555;SDS011;67851;51.354;7.744;2023-05-19T01:08:35;16.38;;;7.03;;
78555;SDS011;67851;51.354;7.744;2023-05-19T01:11:03;21.33;;;7.43;;
78555;SDS011;67851;51.354;7.744;2023-05-19T01:13:29;20.60;;;6.43;;
78555;SDS011;67851;51.354;7.744;2023-05-19T01:16:17;16.13;;;6.38;;
78555;SDS011;67851;51.354;7.744;2023-05-19T01:27:38;16.33;;;5.20;;
78555;SDS011;67851;51.354;7.744;2023-05-19T01:32:54;9.73;;;3.97;;
78555;SDS011;67851;51.354;7.744;2023-05-19T01:35:22;10.25;;;4.00;;
78555;SDS011;67851;51.354;7.744;2023-05-19T01:37:54;9.93;;;3.70;;
78555;SDS011;67851;51.354;7.744;2023-05-19T01:40:23;15.88;;;5.50;;
78555;SDS011;67851;51.354;7.744;2023-05-19T01:42:51;8.18;;;3.38;;
78555;SDS011;67851;51.354;7.744;2023-05-19T01:45:18;9.00;;;3.10;;
78555;SDS011;67851;51.354;7.744;2023-05-19T01:47:46;14.70;;;3.53;;
78555;SDS011;67851;51.354;7.744;2023-05-19T01:50:17;9.02;;;3.08;;
78555;SDS011;67851;51.354;7.744;2023-05-19T01:52:42;8.75;;;2.50;;
78555;SDS011;67851;51.354;7.744;2023-05-19T01:55:08;7.93;;;2.60;;
78555;SDS011;67851;51.354;7.744;2023-05-19T01:57:41;9.65;;;2.83;;
78555;SDS011;67851;51.354;7.744;2023-05-19T02:00:30;11.57;;;2.85;;
78555;SDS011;67851;51.354;7.744;2023-05-19T02:03:31;8.32;;;2.63;;
78555;SDS011;67851;51.354;7.744;2023-05-19T02:14:14;9.35;;;2.75;;
78555;SDS011;67851;51.354;7.744;2023-05-19T02:16:44;8.63;;;2.88;;
78555;SDS011;67851;51.354;7.744;2023-05-19T02:19:22;9.60;;;2.40;;
78555;SDS011;67851;51.354;7.744;2023-05-19T02:21:49;12.68;;;2.50;;
78555;SDS011;67851;51.354;7.744;2023-05-19T02:24:15;9.27;;;2.58;;
78555;SDS011;67851;51.354;7.744;2023-05-19T02:26:40;12.18;;;2.80;;
78555;SDS011;67851;51.354;7.744;2023-05-19T02:29:06;13.25;;;2.92;;
78555;SDS011;67851;51.354;7.744;2023-05-19T02:31:31;8.65;;;2.40;;
78555;SDS011;67851;51.354;7.744;2023-05-19T02:33:57;9.65;;;2.92;;
78555;SDS011;67851;51.354;7.744;2023-05-19T02:36:24;8.43;;;2.15;;
78555;SDS011;67851;51.354;7.744;2023-05-19T02:38:50;10.50;;;2.78;;
78555;SDS011;67851;51.354;7.744;2023-05-19T02:41:16;11.73;;;2.80;;
78555;SDS011;67851;51.354;7.744;2023-05-19T02:43:43;7.03;;;2.58;;
78555;SDS011;67851;51.354;7.744;2023-05-19T02:46:08;9.88;;;2.75;;
78555;SDS011;67851;51.354;7.744;2023-05-19T02:48:34;9.60;;;2.60;;
78555;SDS011;67851;51.354;7.744;2023-05-19T02:51:01;11.77;;;3.17;;
78555;SDS011;67851;51.354;7.744;2023-05-19T02:53:31;8.70;;;2.78;;
78555;SDS011;67851;51.354;7.744;2023-05-19T02:55:58;9.68;;;2.97;;
78555;SDS011;67851;51.354;7.744;2023-05-19T02:58:24;7.20;;;3.00;;
78555;SDS011;67851;51.354;7.744;2023-05-19T03:00:50;12.95;;;2.97;;
78555;SDS011;67851;51.354;7.744;2023-05-19T03:03:16;8.23;;;3.17;;
78555;SDS011;67851;51.354;7.744;2023-05-19T03:05:42;9.02;;;3.30;;
78555;SDS011;67851;51.354;7.744;2023-05-19T03:08:10;9.80;;;3.47;;
78555;SDS011;67851;51.354;7.744;2023-05-19T03:10:35;10.70;;;3.83;;
78555;SDS011;67851;51.354;7.744;2023-05-19T03:13:01;11.70;;;4.10;;
78555;SDS011;67851;51.354;7.744;2023-05-19T03:15:26;16.88;;;3.40;;
78555;SDS011;67851;51.354;7.744;2023-05-19T03:17:53;9.93;;;3.47;;
78555;SDS011;67851;51.354;7.744;2023-05-19T03:20:19;10.88;;;3.70;;
78555;SDS011;67851;51.354;7.744;2023-05-19T03:22:45;11.48;;;3.92;;
78555;SDS011;67851;51.354;7.744;2023-05-19T03:25:13;10.55;;;3.75;;
78555;SDS011;67851;51.354;7.744;2023-05-19T03:27:39;11.35;;;3.92;;
78555;SDS011;67851;51.354;7.744;2023-05-19T03:30:05;11.23;;;3.95;;
78555;SDS011;67851;51.354;7.744;2023-05-19T03:32:34;12.77;;;4.00;;
78555;SDS011;67851;51.354;7.744;2023-05-19T03:35:02;9.15;;;3.63;;
78555;SDS011;67851;51.354;7.744;2023-05-19T03:37:29;19.55;;;4.05;;
78555;SDS011;67851;51.354;7.744;2023-05-19T03:39:56;14.65;;;3.72;;
78555;SDS011;67851;51.354;7.744;2023-05-19T03:42:24;12.15;;;3.80;;
78555;SDS011;67851;51.354;7.744;2023-05-19T03:44:50;11.18;;;3.88;;
78555;SDS011;67851;51.354;7.744;2023-05-19T03:47:16;12.18;;;3.90;;
78555;SDS011;67851;51.354;7.744;2023-05-19T03:49:57;12.80;;;3.88;;
78555;SDS011;67851;51.354;7.744;2023-05-19T03:52:40;16.35;;;4.25;;
78555;SDS011;67851;51.354;7.744;2023-05-19T03:55:22;9.75;;;3.97;;
78555;SDS011;67851;51.354;7.744;2023-05-19T03:57:50;9.13;;;4.10;;
78555;SDS011;67851;51.354;7.744;2023-05-19T04:00:17;16.15;;;4.28;;
78555;SDS011;67851;51.354;7.744;2023-05-19T04:02:43;17.42;;;4.72;;
78555;SDS011;67851;51.354;7.744;2023-05-19T04:05:09;13.05;;;4.18;;
78555;SDS011;67851;51.354;7.744;2023-05-19T04:07:36;10.40;;;4.22;;
78555;SDS011;67851;51.354;7.744;2023-05-19T04:10:04;6.60;;;3.17;;
78555;SDS011;67851;51.354;7.744;2023-05-19T04:12:31;10.57;;;3.65;;
78555;SDS011;67851;51.354;7.744;2023-05-19T04:14:57;10.88;;;3.67;;
78555;SDS011;67851;51.354;7.744;2023-05-19T04:17:23;14.38;;;3.75;;
78555;SDS011;67851;51.354;7.744;2023-05-19T04:19:54;10.55;;;3.33;;
78555;SDS011;67851;51.354;7.744;2023-05-19T04:22:20;9.52;;;3.63;;
78555;SDS011;67851;51.354;7.744;2023-05-19T04:24:46;11.88;;;4.22;;
78555;SDS011;67851;51.354;7.744;2023-05-19T04:27:16;11.95;;;3.20;;
78555;SDS011;67851;51.354;7.744;2023-05-19T04:29:45;6.47;;;3.40;;
78555;SDS011;67851;51.354;7.744;2023-05-19T04:32:12;7.07;;;3.10;;
78555;SDS011;67851;51.354;7.744;2023-05-19T04:34:42;7.15;;;3.20;;
78555;SDS011;67851;51.354;7.744;2023-05-19T04:37:13;9.10;;;2.60;;
78555;SDS011;67851;51.354;7.744;2023-05-19T04:39:41;9.57;;;3.17;;
78555;SDS011;67851;51.354;7.744;2023-05-19T04:42:09;7.78;;;2.92;;
78555;SDS011;67851;51.354;7.744;2023-05-19T04:44:37;9.38;;;3.00;;
78555;SDS011;67851;51.354;7.744;2023-05-19T04:47:07;9.50;;;2.90;;
78555;SDS011;67851;51.354;7.744;2023-05-19T04:49:34;10.38;;;2.75;;
78555;SDS011;67851;51.354;7.744;2023-05-19T04:52:06;7.13;;;2.67;;
78555;SDS011;67851;51.354;7.744;2023-05-19T04:54:35;6.47;;;2.50;;
78555;SDS011;67851;51.354;7.744;2023-05-19T04:57:02;5.32;;;2.58;;
78555;SDS011;67851;51.354;7.744;2023-05-19T04:59:35;5.75;;;2.33;;
78555;SDS011;67851;51.354;7.744;2023-05-19T05:02:04;7.75;;;2.50;;
78555;SDS011;67851;51.354;7.744;2023-05-19T05:04:30;5.10;;;2.47;;
78555;SDS011;67851;51.354;7.744;2023-05-19T05:07:02;8.60;;;2.10;;
78555;SDS011;67851;51.354;7.744;2023-05-19T05:09:29;10.32;;;2.55;;
78555;SDS011;67851;51.354;7.744;2023-05-19T05:12:00;8.65;;;2.40;;
78555;SDS011;67851;51.354;7.744;2023-05-19T05:14:28;8.02;;;3.35;;
78555;SDS011;67851;51.354;7.744;2023-05-19T05:16:55;9.70;;;2.60;;
78555;SDS011;67851;51.354;7.744;2023-05-19T05:19:23;8.40;;;2.88;;
78555;SDS011;67851;51.354;7.744;2023-05-19T05:21:49;6.20;;;2.75;;
78555;SDS011;67851;51.354;7.744;2023-05-19T05:24:18;6.45;;;2.63;;
78555;SDS011;67851;51.354;7.744;2023-05-19T05:26:48;12.43;;;3.53;;
78555;SDS011;67851;51.354;7.744;2023-05-19T05:29:18;9.93;;;1.90;;
78555;SDS011;67851;51.354;7.744;2023-05-19T05:31:44;9.90;;;2.72;;
78555;SDS011;67851;51.354;7.744;2023-05-19T05:34:10;7.28;;;1.92;;
78555;SDS011;67851;51.354;7.744;2023-05-19T05:36:36;8.20;;;2.03;;
78555;SDS011;67851;51.354;7.744;2023-05-19T05:39:01;8.13;;;2.55;;
78555;SDS011;67851;51.354;7.744;2023-05-19T05:41:30;11.38;;;2.47;;
78555;SDS011;67851;51.354;7.744;2023-05-19T05:44:03;9.95;;;2.60;;
78555;SDS011;67851;51.354;7.744;2023-05-19T05:46:30;5.82;;;2.38;;
78555;SDS011;67851;51.354;7.744;2023-05-19T05:48:56;6.72;;;2.10;;
78555;SDS011;67851;51.354;7.744;2023-05-19T05:51:22;9.57;;;2.33;;
78555;SDS011;67851;51.354;7.744;2023-05-19T05:53:51;7.82;;;2.40;;
78555;SDS011;67851;51.354;7.744;2023-05-19T05:56:22;6.33;;;2.10;;
78555;SDS011;67851;51.354;7.744;2023-05-19T05:58:51;7.70;;;2.22;;
78555;SDS011;67851;51.354;7.744;2023-05-19T06:01:18;12.93;;;2.10;;
78555;SDS011;67851;51.354;7.744;2023-05-19T06:03:46;6.40;;;2.15;;
78555;SDS011;67851;51.354;7.744;2023-05-19T06:06:17;9.25;;;2.55;;
78555;SDS011;67851;51.354;7.744;2023-05-19T06:08:43;13.75;;;2.20;;
78555;SDS011;67851;51.354;7.744;2023-05-19T06:11:10;9.05;;;2.38;;
78555;SDS011;67851;51.354;7.744;2023-05-19T06:13:38;8.80;;;2.25;;
78555;SDS011;67851;51.354;7.744;2023-05-19T06:16:08;8.50;;;2.35;;
78555;SDS011;67851;51.354;7.744;2023-05-19T06:18:38;10.70;;;2.63;;
78555;SDS011;67851;51.354;7.744;2023-05-19T06:21:04;11.30;;;2.97;;
78555;SDS011;67851;51.354;7.744;2023-05-19T06:23:31;8.68;;;2.40;;
78555;SDS011;67851;51.354;7.744;2023-05-19T06:25:56;15.27;;;3.05;;
78555;SDS011;67851;51.354;7.744;2023-05-19T06:28:22;7.07;;;2.53;;
78555;SDS011;67851;51.354;7.744;2023-05-19T06:30:49;11.63;;;2.63;;
78555;SDS011;67851;51.354;7.744;2023-05-19T06:33:33;9.70;;;2.97;;
78555;SDS011;67851;51.354;7.744;2023-05-19T06:36:00;10.35;;;3.20;;
78555;SDS011;67851;51.354;7.744;2023-05-19T06:38:26;12.68;;;3.30;;
78555;SDS011;67851;51.354;7.744;2023-05-19T06:40:53;9.95;;;3.42;;
78555;SDS011;67851;51.354;7.744;2023-05-19T06:43:18;9.07;;;2.80;;
78555;SDS011;67851;51.354;7.744;2023-05-19T06:45:52;9.88;;;2.83;;
78555;SDS011;67851;51.354;7.744;2023-05-19T06:48:18;8.80;;;2.92;;
78555;SDS011;67851;51.354;7.744;2023-05-19T06:50:43;10.48;;;2.85;;
78555;SDS011;67851;51.354;7.744;2023-05-19T06:53:15;11.82;;;3.15;;
78555;SDS011;67851;51.354;7.744;2023-05-19T06:55:41;9.80;;;2.53;;
78555;SDS011;67851;51.354;7.744;2023-05-19T06:58:10;7.47;;;2.20;;
78555;SDS011;67851;51.354;7.744;2023-05-19T07:00:38;8.88;;;2.58;;
78555;SDS011;67851;51.354;7.744;2023-05-19T07:03:06;7.70;;;2.20;;
78555;SDS011;67851;51.354;7.744;2023-05-19T07:05:32;6.97;;;2.47;;
78555;SDS011;67851;51.354;7.744;2023-05-19T07:08:00;9.43;;;1.65;;
78555;SDS011;67851;51.354;7.744;2023-05-19T07:10:27;7.20;;;2.25;;
78555;SDS011;67851;51.354;7.744;2023-05-19T07:12:54;8.15;;;1.80;;
78555;SDS011;67851;51.354;7.744;2023-05-19T07:15:25;4.75;;;2.13;;
78555;SDS011;67851;51.354;7.744;2023-05-19T07:17:52;4.07;;;1.65;;
78555;SDS011;67851;51.354;7.744;2023-05-19T07:20:17;7.95;;;1.88;;
78555;SDS011;67851;51.354;7.744;2023-05-19T07:22:43;12.57;;;2.00;;
78555;SDS011;67851;51.354;7.744;2023-05-19T07:25:09;8.50;;;2.13;;
78555;SDS011;67851;51.354;7.744;2023-05-19T07:27:35;7.07;;;2.25;;
78555;SDS011;67851;51.354;7.744;2023-05-19T07:30:02;4.70;;;1.83;;
78555;SDS011;67851;51.354;7.744;2023-05-19T07:32:30;8.80;;;1.98;;
78555;SDS011;67851;51.354;7.744;2023-05-19T07:34:56;7.93;;;1.70;;
78555;SDS011;67851;51.354;7.744;2023-05-19T07:37:22;7.50;;;2.00;;
78555;SDS011;67851;51.354;7.744;2023-05-19T07:39:48;7.95;;;1.90;;
78555;SDS011;67851;51.354;7.744;2023-05-19T07:42:16;10.55;;;2.05;;
78555;SDS011;67851;51.354;7.744;2023-05-19T07:44:42;5.65;;;1.98;;
78555;SDS011;67851;51.354;7.744;2023-05-19T07:47:08;7.15;;;2.35;;
78555;SDS011;67851;51.354;7.744;2023-05-19T07:49:34;8.10;;;2.17;;
78555;SDS011;67851;51.354;7.744;2023-05-19T07:52:01;6.43;;;2.13;;
78555;SDS011;67851;51.354;7.744;2023-05-19T07:54:27;6.88;;;1.85;;
78555;SDS011;67851;51.354;7.744;2023-05-19T07:56:54;10.98;;;2.97;;
78555;SDS011;67851;51.354;7.744;2023-05-19T07:59:22;12.80;;;2.70;;
78555;SDS011;67851;51.354;7.744;2023-05-19T08:01:49;8.02;;;2.33;;
78555;SDS011;67851;51.354;7.744;2023-05-19T08:04:16;9.45;;;2.30;;
78555;SDS011;67851;51.354;7.744;2023-05-19T08:06:42;14.48;;;2.25;;
78555;SDS011;67851;51.354;7.744;2023-05-19T08:09:08;7.25;;;1.75;;
78555;SDS011;67851;51.354;7.744;2023-05-19T08:11:35;7.15;;;1.73;;
78555;SDS011;67851;51.354;7.744;2023-05-19T08:14:04;10.10;;;2.63;;
78555;SDS011;67851;51.354;7.744;2023-05-19T08:16:33;8.05;;;2.20;;
78555;SDS011;67851;51.354;7.744;2023-05-19T08:18:58;10.85;;;2.53;;
78555;SDS011;67851;51.354;7.744;2023-05-19T08:21:26;12.10;;;3.40;;
78555;SDS011;67851;51.354;7.744;2023-05-19T08:23:52;6.15;;;2.00;;
78555;SDS011;67851;51.354;7.744;2023-05-19T08:26:18;7.93;;;2.20;;
78555;SDS011;67851;51.354;7.744;2023-05-19T08:28:45;7.88;;;2.08;;
78555;SDS011;67851;51.354;7.744;2023-05-19T08:31:10;14.15;;;2.75;;
78555;SDS011;67851;51.354;7.744;2023-05-19T08:33:35;7.78;;;2.20;;
78555;SDS011;67851;51.354;7.744;2023-05-19T08:36:02;7.32;;;2.30;;
78555;SDS011;67851;51.354;7.744;2023-05-19T08:38:29;10.35;;;2.10;;
78555;SDS011;67851;51.354;7.744;2023-05-19T08:40:55;6.45;;;1.75;;
78555;SDS011;67851;51.354;7.744;2023-05-19T08:43:23;12.25;;;2.35;;
78555;SDS011;67851;51.354;7.744;2023-05-19T08:45:49;11.35;;;2.10;;
78555;SDS011;67851;51.354;7.744;2023-05-19T08:48:15;5.47;;;1.95;;
78555;SDS011;67851;51.354;7.744;2023-05-19T08:50:43;9.32;;;2.40;;
78555;SDS011;67851;51.354;7.744;2023-05-19T08:53:33;5.75;;;2.00;;
78555;SDS011;67851;51.354;7.744;2023-05-19T08:56:03;5.82;;;2.13;;
78555;SDS011;67851;51.354;7.744;2023-05-19T08:58:40;9.02;;;1.88;;
78555;SDS011;67851;51.354;7.744;2023-05-19T09:01:12;6.25;;;2.22;;
78555;SDS011;67851;51.354;7.744;2023-05-19T09:03:38;9.15;;;2.17;;
78555;SDS011;67851;51.354;7.744;2023-05-19T09:06:05;9.57;;;2.40;;
78555;SDS011;67851;51.354;7.744;2023-05-19T09:08:35;5.60;;;1.98;;
78555;SDS011;67851;51.354;7.744;2023-05-19T09:11:01;7.05;;;1.90;;
78555;SDS011;67851;51.354;7.744;2023-05-19T09:13:27;13.35;;;1.80;;
78555;SDS011;67851;51.354;7.744;2023-05-19T09:15:56;7.28;;;2.08;;
78555;SDS011;67851;51.354;7.744;2023-05-19T09:18:23;8.55;;;1.75;;
78555;SDS011;67851;51.354;7.744;2023-05-19T09:20:50;7.95;;;1.90;;
78555;SDS011;67851;51.354;7.744;2023-05-19T09:23:27;8.38;;;2.40;;
78555;SDS011;67851;51.354;7.744;2023-05-19T09:25:56;6.78;;;1.77;;
78555;SDS011;67851;51.354;7.744;2023-05-19T09:28:24;6.88;;;2.00;;
78555;SDS011;67851;51.354;7.744;2023-05-19T09:31:02;8.43;;;2.38;;
78555;SDS011;67851;51.354;7.744;2023-05-19T09:33:36;6.80;;;2.08;;
78555;SDS011;67851;51.354;7.744;2023-05-19T09:36:03;5.40;;;1.70;;
78555;SDS011;67851;51.354;7.744;2023-05-19T09:38:31;6.97;;;1.65;;
78555;SDS011;67851;51.354;7.744;2023-05-19T09:40:58;6.70;;;1.70;;
78555;SDS011;67851;51.354;7.744;2023-05-19T09:43:27;4.95;;;2.15;;
78555;SDS011;67851;51.354;7.744;2023-05-19T09:45:57;11.48;;;1.58;;
78555;SDS011;67851;51.354;7.744;2023-05-19T09:48:25;5.47;;;1.85;;
78555;SDS011;67851;51.354;7.744;2023-05-19T09:50:53;7.65;;;1.88;;
78555;SDS011;67851;51.354;7.744;2023-05-19T09:53:22;6.93;;;2.05;;
78555;SDS011;67851;51.354;7.744;2023-05-19T09:55:53;4.43;;;1.33;;
78555;SDS011;67851;51.354;7.744;2023-05-19T09:58:22;8.00;;;2.00;;
78555;SDS011;67851;51.354;7.744;2023-05-19T10:00:52;6.90;;;1.67;;
78555;SDS011;67851;51.354;7.744;2023-05-19T10:03:19;4.90;;;1.30;;
78555;SDS011;67851;51.354;7.744;2023-05-19T10:05:48;4.40;;;1.40;;
78555;SDS011;67851;51.354;7.744;2023-05-19T10:08:17;4.22;;;1.55;;
78555;SDS011;67851;51.354;7.744;2023-05-19T10:10:51;5.90;;;1.50;;
78555;SDS011;67851;51.354;7.744;2023-05-19T10:13:18;6.18;;;1.92;;
78555;SDS011;67851;51.354;7.744;2023-05-19T10:15:48;5.50;;;1.60;;
78555;SDS011;67851;51.354;7.744;2023-05-19T10:18:16;6.93;;;1.88;;
78555;SDS011;67851;51.354;7.744;2023-05-19T10:20:43;6.40;;;1.70;;
78555;SDS011;67851;51.354;7.744;2023-05-19T10:23:09;8.18;;;1.88;;
78555;SDS011;67851;51.354;7.744;2023-05-19T10:25:35;8.40;;;1.73;;
78555;SDS011;67851;51.354;7.744;2023-05-19T10:28:03;6.57;;;2.33;;
78555;SDS011;67851;51.354;7.744;2023-05-19T10:30:33;7.57;;;2.00;;
78555;SDS011;67851;51.354;7.744;2023-05-19T10:33:03;5.80;;;2.05;;
78555;SDS011;67851;51.354;7.744;2023-05-19T10:41:12;3.80;;;1.30;;
78555;SDS011;67851;51.354;7.744;2023-05-19T10:46:38;6.00;;;1.85;;
78555;SDS011;67851;51.354;7.744;2023-05-19T10:49:06;6.03;;;1.70;;
78555;SDS011;67851;51.354;7.744;2023-05-19T10:51:32;5.82;;;1.98;;
78555;SDS011;67851;51.354;7.744;2023-05-19T10:54:00;7.35;;;2.20;;
78555;SDS011;67851;51.354;7.744;2023-05-19T10:56:35;8.18;;;1.90;;
78555;SDS011;67851;51.354;7.744;2023-05-19T11:01:33;6.15;;;2.10;;
78555;SDS011;67851;51.354;7.744;2023-05-19T11:04:09;6.32;;;2.15;;
78555;SDS011;67851;51.354;7.744;2023-05-19T11:06:36;5.85;;;1.70;;
78555;SDS011;67851;51.354;7.744;2023-05-19T11:11:48;5.30;;;1.70;;
78555;SDS011;67851;51.354;7.744;2023-05-19T11:14:22;5.22;;;1.73;;
78555;SDS011;67851;51.354;7.744;2023-05-19T11:16:56;9.70;;;2.15;;
78555;SDS011;67851;51.354;7.744;2023-05-19T11:19:33;8.57;;;1.90;;
78555;SDS011;67851;51.354;7.744;2023-05-19T11:24:33;8.20;;;2.17;;
78555;SDS011;67851;51.354;7.744;2023-05-19T11:27:23;9.00;;;2.53;;
78555;SDS011;67851;51.354;7.744;2023-05-19T11:29:53;8.93;;;2.30;;
78555;SDS011;67851;51.354;7.744;2023-05-19T11:32:20;7.25;;;2.13;;
78555;SDS011;67851;51.354;7.744;2023-05-19T11:34:47;7.57;;;1.83;;
78555;SDS011;67851;51.354;7.744;2023-05-19T11:37:14;8.90;;;2.10;;
78555;SDS011;67851;51.354;7.744;2023-05-19T11:39:40;5.82;;;1.90;;
78555;SDS011;67851;51.354;7.744;2023-05-19T11:42:08;3.67;;;1.60;;
78555;SDS011;67851;51.354;7.744;2023-05-19T11:44:34;5.10;;;1.60;;
78555;SDS011;67851;51.354;7.744;2023-05-19T11:47:00;9.27;;;1.95;;
78555;SDS011;67851;51.354;7.744;2023-05-19T11:49:28;6.82;;;1.98;;
78555;SDS011;67851;51.354;7.744;2023-05-19T11:51:55;5.60;;;2.00;;
78555;SDS011;67851;51.354;7.744;2023-05-19T11:54:21;6.03;;;1.90;;
78555;SDS011;67851;51.354;7.744;2023-05-19T11:57:00;5.80;;;1.85;;
78555;SDS011;67851;51.354;7.744;2023-05-19T11:59:35;8.73;;;1.58;;
78555;SDS011;67851;51.354;7.744;2023-05-19T12:02:14;7.97;;;1.90;;
78555;SDS011;67851;51.354;7.744;2023-05-19T12:04:47;5.10;;;1.50;;
78555;SDS011;67851;51.354;7.744;2023-05-19T12:07:19;5.15;;;1.70;;
78555;SDS011;67851;51.354;7.744;2023-05-19T12:09:48;6.57;;;1.60;;
78555;SDS011;67851;51.354;7.744;2023-05-19T12:12:16;4.40;;;1.50;;
78555;SDS011;67851;51.354;7.744;2023-05-19T12:14:43;3.42;;;1.60;;
78555;SDS011;67851;51.354;7.744;2023-05-19T12:17:13;4.07;;;1.42;;
78555;SDS011;67851;51.354;7.744;2023-05-19T12:19:44;13.25;;;1.92;;
78555;SDS011;67851;51.354;7.744;2023-05-19T12:22:11;4.75;;;1.83;;
78555;SDS011;67851;51.354;7.744;2023-05-19T12:24:38;4.07;;;1.80;;
78555;SDS011;67851;51.354;7.744;2023-05-19T12:27:10;5.72;;;1.73;;
78555;SDS011;67851;51.354;7.744;2023-05-19T12:29:39;4.13;;;1.45;;
78555;SDS011;67851;51.354;7.744;2023-05-19T12:32:06;4.20;;;1.67;;
78555;SDS011;67851;51.354;7.744;2023-05-19T12:34:37;6.28;;;1.70;;
78555;SDS011;67851;51.354;7.744;2023-05-19T12:37:04;9.63;;;2.13;;
78555;SDS011;67851;51.354;7.744;2023-05-19T12:39:30;3.90;;;1.40;;
78555;SDS011;67851;51.354;7.744;2023-05-19T12:42:00;4.60;;;1.50;;
78555;SDS011;67851;51.354;7.744;2023-05-19T12:44:37;6.47;;;2.05;;
78555;SDS011;67851;51.354;7.744;2023-05-19T12:47:11;5.72;;;1.48;;
78555;SDS011;67851;51.354;7.744;2023-05-19T12:49:55;4.82;;;1.80;;
78555;SDS011;67851;51.354;7.744;2023-05-19T12:52:41;3.65;;;1.58;;
78555;SDS011;67851;51.354;7.744;2023-05-19T12:55:09;4.57;;;1.70;;
78555;SDS011;67851;51.354;7.744;2023-05-19T12:57:39;5.38;;;1.60;;
78555;SDS011;67851;51.354;7.744;2023-05-19T13:00:12;3.22;;;1.40;;
78555;SDS011;67851;51.354;7.744;2023-05-19T13:05:34;5.13;;;1.50;;
78555;SDS011;67851;51.354;7.744;2023-05-19T13:08:06;3.83;;;1.45;;
78555;SDS011;67851;51.354;7.744;2023-05-19T13:10:37;2.80;;;1.25;;
78555;SDS011;67851;51.354;7.744;2023-05-19T13:13:05;5.25;;;1.60;;
78555;SDS011;67851;51.354;7.744;2023-05-19T13:15:32;5.97;;;1.65;;
78555;SDS011;67851;51.354;7.744;2023-05-19T13:18:00;10.65;;;1.80;;
78555;SDS011;67851;51.354;7.744;2023-05-19T13:20:33;4.40;;;1.45;;
78555;SDS011;67851;51.354;7.744;2023-05-19T13:23:00;5.20;;;1.60;;
78555;SDS011;67851;51.354;7.744;2023-05-19T13:25:26;6.63;;;1.58;;
78555;SDS011;67851;51.354;7.744;2023-05-19T13:27:52;4.30;;;1.60;;
78555;SDS011;67851;51.354;7.744;2023-05-19T13:30:23;4.25;;;1.42;;
78555;SDS011;67851;51.354;7.744;2023-05-19T13:32:49;3.53;;;1.45;;
78555;SDS011;67851;51.354;7.744;2023-05-19T13:35:16;4.07;;;1.58;;
78555;SDS011;67851;51.354;7.744;2023-05-19T13:37:43;7.00;;;2.25;;
78555;SDS011;67851;51.354;7.744;2023-05-19T13:40:09;4.57;;;1.40;;
78555;SDS011;67851;51.354;7.744;2023-05-19T13:42:35;4.22;;;1.50;;
78555;SDS011;67851;51.354;7.744;2023-05-19T13:45:01;4.40;;;1.45;;
78555;SDS011;67851;51.354;7.744;2023-05-19T13:47:28;6.80;;;1.85;;
78555;SDS011;67851;51.354;7.744;2023-05-19T13:49:54;7.32;;;2.53;;
78555;SDS011;67851;51.354;7.744;2023-05-19T13:52:20;4.70;;;1.58;;
78555;SDS011;67851;51.354;7.744;2023-05-19T13:54:46;5.45;;;1.52;;
78555;SDS011;67851;51.354;7.744;2023-05-19T13:57:14;3.30;;;1.70;;
78555;SDS011;67851;51.354;7.744;2023-05-19T13:59:40;4.13;;;2.08;;
78555;SDS011;67851;51.354;7.744;2023-05-19T14:02:07;6.88;;;1.98;;
78555;SDS011;67851;51.354;7.744;2023-05-19T14:04:37;8.15;;;3.38;;
78555;SDS011;67851;51.354;7.744;2023-05-19T14:07:06;5.80;;;1.90;;
78555;SDS011;67851;51.354;7.744;2023-05-19T14:09:34;5.50;;;1.92;;
78555;SDS011;67851;51.354;7.744;2023-05-19T14:12:00;5.82;;;1.83;;
78555;SDS011;67851;51.354;7.744;2023-05-19T14:14:25;8.23;;;1.50;;
78555;SDS011;67851;51.354;7.744;2023-05-19T14:16:51;4.75;;;1.40;;
78555;SDS011;67851;51.354;7.744;2023-05-19T14:19:16;3.20;;;1.67;;
78555;SDS011;67851;51.354;7.744;2023-05-19T14:21:43;5.07;;;1.55;;
78555;SDS011;67851;51.354;7.744;2023-05-19T14:24:09;5.57;;;1.50;;
78555;SDS011;67851;51.354;7.744;2023-05-19T14:26:34;4.28;;;1.33;;
78555;SDS011;67851;51.354;7.744;2023-05-19T14:29:00;5.80;;;1.67;;
78555;SDS011;67851;51.354;7.744;2023-05-19T14:31:27;5.35;;;1.63;;
78555;SDS011;67851;51.354;7.744;2023-05-19T14:33:52;4.38;;;1.50;;
78555;SDS011;67851;51.354;7.744;2023-05-19T14:36:18;5.78;;;1.65;;
78555;SDS011;67851;51.354;7.744;2023-05-19T14:38:45;10.57;;;1.60;;
78555;SDS011;67851;51.354;7.744;2023-05-19T14:41:10;6.18;;;1.70;;
78555;SDS011;67851;51.354;7.744;2023-05-19T14:43:37;3.60;;;1.50;;
78555;SDS011;67851;51.354;7.744;2023-05-19T14:46:06;4.70;;;1.50;;
78555;SDS011;67851;51.354;7.744;2023-05-19T14:48:32;6.38;;;1.95;;
78555;SDS011;67851;51.354;7.744;2023-05-19T14:50:57;4.40;;;1.48;;
78555;SDS011;67851;51.354;7.744;2023-05-19T14:53:23;4.32;;;1.75;;
78555;SDS011;67851;51.354;7.744;2023-05-19T14:55:48;5.82;;;1.70;;
78555;SDS011;67851;51.354;7.744;2023-05-19T14:58:14;5.85;;;1.50;;
78555;SDS011;67851;51.354;7.744;2023-05-19T15:00:46;8.48;;;1.80;;
78555;SDS011;67851;51.354;7.744;2023-05-19T15:03:13;3.75;;;1.40;;
78555;SDS011;67851;51.354;7.744;2023-05-19T15:05:41;8.27;;;1.80;;
78555;SDS011;67851;51.354;7.744;2023-05-19T15:08:09;5.47;;;1.45;;
78555;SDS011;67851;51.354;7.744;2023-05-19T15:10:35;3.70;;;1.55;;
78555;SDS011;67851;51.354;7.744;2023-05-19T15:13:02;4.32;;;1.65;;
78555;SDS011;67851;51.354;7.744;2023-05-19T15:15:29;6.70;;;1.70;;
78555;SDS011;67851;51.354;7.744;2023-05-19T15:17:55;6.03;;;1.77;;
78555;SDS011;67851;51.354;7.744;2023-05-19T15:20:21;3.00;;;1.50;;
78555;SDS011;67851;51.354;7.744;2023-05-19T15:22:46;7.70;;;1.35;;
78555;SDS011;67851;51.354;7.744;2023-05-19T15:25:13;4.93;;;1.55;;
78555;SDS011;67851;51.354;7.744;2023-05-19T15:27:39;7.80;;;2.80;;